createdAt,value
2022-08-04T00:00:05.694Z,72.45
2022-08-04T00:01:05.746Z,72.19
2022-08-04T00:02:05.691Z,73.18
2022-08-04T00:03:05.666Z,73.18
2022-08-04T00:04:05.650Z,73.08
2022-08-04T00:05:05.735Z,72.78
2022-08-04T00:06:05.634Z,72.98
2022-08-04T00:07:05.613Z,73.25
2022-08-04T00:08:05.655Z,72.75
2022-08-04T00:09:05.598Z,72.55
2022-08-04T00:10:05.591Z,72.85
2022-08-04T00:11:05.583Z,71.95
2022-08-04T00:12:05.568Z,71.95
2022-08-04T00:13:05.565Z,71.85
2022-08-04T00:14:05.538Z,72.45
2022-08-04T00:15:05.533Z,72.65
2022-08-04T00:16:05.535Z,72.25
2022-08-04T00:17:05.518Z,71.95
2022-08-04T00:18:05.528Z,71.65
2022-08-04T00:19:05.481Z,72.05
2022-08-04T00:20:05.472Z,71.65
2022-08-04T00:21:05.466Z,71.85
2022-08-04T00:22:05.455Z,71.65
2022-08-04T00:23:05.438Z,71.65
2022-08-04T00:24:12.131Z,71.45
2022-08-04T00:25:06.416Z,71.55
2022-08-04T00:26:05.414Z,71.75
2022-08-04T00:27:05.394Z,72.05
2022-08-04T00:28:05.384Z,71.45
2022-08-04T00:29:05.398Z,72.05
2022-08-04T00:30:05.374Z,71.65
2022-08-04T00:31:05.350Z,71.15
2022-08-04T00:32:05.340Z,70.75
2022-08-04T00:33:05.327Z,71.75
2022-08-04T00:34:05.326Z,71.45
2022-08-04T00:35:05.328Z,71.75
2022-08-04T00:36:05.306Z,71.75
2022-08-04T00:37:05.285Z,71.39
2022-08-04T00:38:05.290Z,71.85
2022-08-04T00:39:05.303Z,71.78
2022-08-04T00:40:05.275Z,71.45
2022-08-04T00:41:05.239Z,71.45
2022-08-04T00:42:05.236Z,71.65
2022-08-04T00:43:05.214Z,71.35
2022-08-04T00:44:05.214Z,71.35
2022-08-04T00:45:05.216Z,71.45
2022-08-04T00:46:15.387Z,71.35
2022-08-04T00:47:06.176Z,71.25
2022-08-04T00:48:05.178Z,71.35
2022-08-04T00:49:05.167Z,71.78
2022-08-04T00:50:05.159Z,71.89
2022-08-04T00:51:05.130Z,71.78
2022-08-04T00:52:31.513Z,72.35
2022-08-04T00:53:06.122Z,72.19
2022-08-04T00:54:05.103Z,71.78
2022-08-04T00:55:08.596Z,71.98
2022-08-04T00:56:05.081Z,72.08
2022-08-04T00:57:05.070Z,72.08
2022-08-04T00:58:05.068Z,72.19
2022-08-04T00:59:05.043Z,72.08
2022-08-04T01:00:05.050Z,72.08
2022-08-04T01:01:05.149Z,71.78
2022-08-04T01:02:05.021Z,71.89
2022-08-04T01:03:05.011Z,71.78
2022-08-04T01:04:04.991Z,72.08
2022-08-04T01:05:05.000Z,71.09
2022-08-04T01:06:04.980Z,71.19
2022-08-04T01:07:04.962Z,71.69
2022-08-04T01:08:04.955Z,71.69
2022-08-04T01:09:04.931Z,71.59
2022-08-04T01:10:04.943Z,71.35
2022-08-04T01:11:04.917Z,71.45
2022-08-04T01:12:04.899Z,70.99
2022-08-04T01:13:07.770Z,71.09
2022-08-04T01:14:05.881Z,71.09
2022-08-04T01:15:04.879Z,71.25
2022-08-04T01:16:04.872Z,70.65
2022-08-04T01:17:04.844Z,70.65
2022-08-04T01:18:05.878Z,71.85
2022-08-04T01:19:04.823Z,70.65
2022-08-04T01:20:04.814Z,71.55
2022-08-04T01:21:04.816Z,71.05
2022-08-04T01:22:04.795Z,71.15
2022-08-04T01:23:04.782Z,70.89
2022-08-04T01:24:04.767Z,71.19
2022-08-04T01:25:04.913Z,71.05
2022-08-04T01:26:06.969Z,70.89
2022-08-04T01:27:05.747Z,71.48
2022-08-04T01:28:04.745Z,71.69
2022-08-04T01:29:04.706Z,71.69
2022-08-04T01:30:04.700Z,71.35
2022-08-04T01:31:04.700Z,71.09
2022-08-04T01:32:04.677Z,71.78
2022-08-04T01:33:04.664Z,71.39
2022-08-04T01:34:04.956Z,71.78
2022-08-04T01:35:04.649Z,71.15
2022-08-04T01:36:04.710Z,71.39
2022-08-04T01:37:04.623Z,71.78
2022-08-04T01:38:21.156Z,71.78
2022-08-04T01:39:05.638Z,71.59
2022-08-04T01:40:04.601Z,71.69
2022-08-04T01:41:04.611Z,71.78
2022-08-04T01:42:04.567Z,71.29
2022-08-04T01:43:04.552Z,72.08
2022-08-04T01:44:04.548Z,71.48
2022-08-04T01:45:04.534Z,71.69
2022-08-04T01:46:04.531Z,71.78
2022-08-04T01:47:04.529Z,71.69
2022-08-04T01:48:04.510Z,71.59
2022-08-04T01:49:04.498Z,71.89
2022-08-04T01:50:04.480Z,71.78
2022-08-04T01:51:04.485Z,71.59
2022-08-04T01:52:04.475Z,71.09
2022-08-04T01:53:04.451Z,71.39
2022-08-04T01:54:04.435Z,71.19
2022-08-04T01:55:04.419Z,71.48
2022-08-04T01:56:04.416Z,72.08
2022-08-04T01:57:37.674Z,71.69
2022-08-04T01:58:05.400Z,71.69
2022-08-04T01:59:04.393Z,71.89
2022-08-04T02:00:04.378Z,71.48
2022-08-04T02:01:05.118Z,71.48
2022-08-04T02:02:04.515Z,71.89
2022-08-04T02:03:04.403Z,71.59
2022-08-04T02:04:21.028Z,71.39
2022-08-04T02:05:05.307Z,71.78
2022-08-04T02:06:04.444Z,71.69
2022-08-04T02:07:04.318Z,71.59
2022-08-04T02:08:04.291Z,71.89
2022-08-04T02:09:04.268Z,71.59
2022-08-04T02:10:04.256Z,72.08
2022-08-04T02:11:04.250Z,72.19
2022-08-04T02:12:04.240Z,71.78
2022-08-04T02:13:04.247Z,71.39
2022-08-04T02:14:04.221Z,72.08
2022-08-04T02:15:04.207Z,71.78
2022-08-04T02:16:04.194Z,72.28
2022-08-04T02:17:04.183Z,71.59
2022-08-04T02:18:04.202Z,71.19
2022-08-04T02:19:04.178Z,71.29
2022-08-04T02:20:04.173Z,71.78
2022-08-04T02:21:04.137Z,71.78
2022-08-04T02:22:04.137Z,71.89
2022-08-04T02:23:04.129Z,71.09
2022-08-04T02:24:04.113Z,71.59
2022-08-04T02:25:04.093Z,71.78
2022-08-04T02:26:04.093Z,71.29
2022-08-04T02:27:04.069Z,71.29
2022-08-04T02:28:04.078Z,71.29
2022-08-04T02:29:04.063Z,71.78
2022-08-04T02:30:04.041Z,71.89
2022-08-04T02:31:04.037Z,71.78
2022-08-04T02:32:04.022Z,72.28
2022-08-04T02:33:04.025Z,71.78
2022-08-04T02:34:03.996Z,71.69
2022-08-04T02:35:03.985Z,72.08
2022-08-04T02:36:03.979Z,72.28
2022-08-04T02:37:03.967Z,72.19
2022-08-04T02:38:03.951Z,72.08
2022-08-04T02:39:04.043Z,71.78
2022-08-04T02:40:03.941Z,71.89
2022-08-04T02:41:03.915Z,72.08
2022-08-04T02:42:03.915Z,72.19
2022-08-04T02:43:03.896Z,72.68
2022-08-04T02:44:03.902Z,71.92
2022-08-04T02:45:03.889Z,72.02
2022-08-04T02:46:03.861Z,72.19
2022-08-04T02:47:04.845Z,72.38
2022-08-04T02:48:25.230Z,71.48
2022-08-04T02:49:04.838Z,72.38
2022-08-04T02:50:03.823Z,71.48
2022-08-04T02:51:03.802Z,72.08
2022-08-04T02:52:03.796Z,72.49
2022-08-04T02:53:03.789Z,71.89
2022-08-04T02:54:04.797Z,72.12
2022-08-04T02:55:03.762Z,71.92
2022-08-04T02:56:03.756Z,72.28
2022-08-04T02:57:04.414Z,71.39
2022-08-04T02:58:03.737Z,71.82
2022-08-04T02:59:03.726Z,71.98
2022-08-04T03:00:03.788Z,72.49
2022-08-04T03:01:03.751Z,72.49
2022-08-04T03:02:03.683Z,72.32
2022-08-04T03:03:03.672Z,72.42
2022-08-04T03:04:03.673Z,71.92
2022-08-04T03:05:03.666Z,72.49
2022-08-04T03:06:06.471Z,72.62
2022-08-04T03:07:04.635Z,71.89
2022-08-04T03:08:03.623Z,71.89
2022-08-04T03:09:03.604Z,71.92
2022-08-04T03:10:03.615Z,71.89
2022-08-04T03:11:03.584Z,72.52
2022-08-04T03:12:03.578Z,72.32
2022-08-04T03:13:03.571Z,71.78
2022-08-04T03:14:05.121Z,72.19
2022-08-04T03:15:03.579Z,72.42
2022-08-04T03:16:03.544Z,72.68
2022-08-04T03:17:03.518Z,72.19
2022-08-04T03:18:03.505Z,71.59
2022-08-04T03:19:03.494Z,71.48
2022-08-04T03:20:03.496Z,72.08
2022-08-04T03:21:03.481Z,71.98
2022-08-04T03:22:03.488Z,71.78
2022-08-04T03:23:15.072Z,71.78
2022-08-04T03:24:04.439Z,71.32
2022-08-04T03:25:03.445Z,71.82
2022-08-04T03:26:03.439Z,71.89
2022-08-04T03:27:03.416Z,71.98
2022-08-04T03:28:03.407Z,71.89
2022-08-04T03:29:03.389Z,71.98
2022-08-04T03:30:03.437Z,72.08
2022-08-04T03:31:10.936Z,72.19
2022-08-04T03:32:03.358Z,71.98
2022-08-04T03:33:03.358Z,72.08
2022-08-04T03:34:03.361Z,71.89
2022-08-04T03:35:03.317Z,72.19
2022-08-04T03:36:03.327Z,71.98
2022-08-04T03:37:03.298Z,71.69
2022-08-04T03:38:03.298Z,72.08
2022-08-04T03:39:03.330Z,71.39
2022-08-04T03:40:03.329Z,71.89
2022-08-04T03:41:04.253Z,71.78
2022-08-04T03:42:04.943Z,71.29
2022-08-04T03:43:03.246Z,71.89
2022-08-04T03:44:03.248Z,71.98
2022-08-04T03:45:03.209Z,72.19
2022-08-04T03:46:03.257Z,71.89
2022-08-04T03:47:03.185Z,71.98
2022-08-04T03:48:03.193Z,71.98
2022-08-04T03:49:03.180Z,72.28
2022-08-04T03:50:04.459Z,72.08
2022-08-04T03:51:03.145Z,71.89
2022-08-04T03:52:03.166Z,72.19
2022-08-04T03:53:03.128Z,72.08
2022-08-04T03:54:03.118Z,71.89
2022-08-04T03:55:03.109Z,71.78
2022-08-04T03:56:03.112Z,72.08
2022-08-04T03:57:03.083Z,72.08
2022-08-04T03:58:03.097Z,72.19
2022-08-04T03:59:03.054Z,71.78
2022-08-04T04:00:03.067Z,71.89
2022-08-04T04:01:03.054Z,71.89
2022-08-04T04:02:07.057Z,71.89
2022-08-04T04:03:03.026Z,71.89
2022-08-04T04:04:03.020Z,72.08
2022-08-04T04:05:02.991Z,71.25
2022-08-04T04:06:03.228Z,71.89
2022-08-04T04:07:03.483Z,71.89
2022-08-04T04:08:03.976Z,72.38
2022-08-04T04:09:02.958Z,72.49
2022-08-04T04:10:06.380Z,72.19
2022-08-04T04:11:02.932Z,72.38
2022-08-04T04:12:02.907Z,72.38
2022-08-04T04:13:02.929Z,72.38
2022-08-04T04:14:02.906Z,72.28
2022-08-04T04:15:02.879Z,72.28
2022-08-04T04:16:02.863Z,72.28
2022-08-04T04:17:02.860Z,72.58
2022-08-04T04:18:02.858Z,72.58
2022-08-04T04:19:02.848Z,72.68
2022-08-04T04:20:02.829Z,72.88
2022-08-04T04:21:02.814Z,72.88
2022-08-04T04:22:02.799Z,72.88
2022-08-04T04:23:02.822Z,73.18
2022-08-04T04:24:02.777Z,73.32
2022-08-04T04:25:02.775Z,73.11
2022-08-04T04:26:02.767Z,73.22
2022-08-04T04:27:02.751Z,73.28
2022-08-04T04:28:45.333Z,73.38
2022-08-04T04:29:03.774Z,73.42
2022-08-04T04:30:02.715Z,73.11
2022-08-04T04:31:02.716Z,73.22
2022-08-04T04:32:02.734Z,73.38
2022-08-04T04:33:02.711Z,73.11
2022-08-04T04:34:02.682Z,73.22
2022-08-04T04:35:02.693Z,73.28
2022-08-04T04:36:02.649Z,74.08
2022-08-04T04:37:02.639Z,74.08
2022-08-04T04:38:02.634Z,73.18
2022-08-04T04:39:02.733Z,73.38
2022-08-04T04:40:03.381Z,73.52
2022-08-04T04:41:02.600Z,74.08
2022-08-04T04:42:02.611Z,74.28
2022-08-04T04:43:02.573Z,73.58
2022-08-04T04:44:02.587Z,73.78
2022-08-04T04:45:02.548Z,73.88
2022-08-04T04:46:02.531Z,73.88
2022-08-04T04:47:02.535Z,73.82
2022-08-04T04:48:09.935Z,73.91
2022-08-04T04:49:03.535Z,73.68
2022-08-04T04:50:02.489Z,73.68
2022-08-04T04:51:02.479Z,73.82
2022-08-04T04:52:02.468Z,73.68
2022-08-04T04:53:02.476Z,73.68
2022-08-04T04:54:02.444Z,73.68
2022-08-04T04:55:02.464Z,73.88
2022-08-04T04:56:02.466Z,73.28
2022-08-04T04:57:02.412Z,74.18
2022-08-04T04:58:02.410Z,74.08
2022-08-04T04:59:02.424Z,73.98
2022-08-04T05:00:02.404Z,73.78
2022-08-04T05:01:02.399Z,73.88
2022-08-04T05:02:02.354Z,74.18
2022-08-04T05:03:05.995Z,74.08
2022-08-04T05:04:03.370Z,74.08
2022-08-04T05:05:02.324Z,73.98
2022-08-04T05:06:02.321Z,73.18
2022-08-04T05:07:02.298Z,74.18
2022-08-04T05:08:43.028Z,73.18
2022-08-04T05:09:03.281Z,72.65
2022-08-04T05:10:02.293Z,73.25
2022-08-04T05:11:02.257Z,73.28
2022-08-04T05:12:02.411Z,73.05
2022-08-04T05:14:34.916Z,74.34
2022-08-04T05:14:37.969Z,73.94
2022-08-04T05:15:03.717Z,73.94
2022-08-04T05:16:02.198Z,73.14
2022-08-04T05:17:02.202Z,73.35
2022-08-04T05:18:02.219Z,73.05
2022-08-04T05:19:02.170Z,73.11
2022-08-04T05:20:02.155Z,73.14
2022-08-04T05:21:02.159Z,73.11
2022-08-04T05:22:02.140Z,72.85
2022-08-04T05:23:02.139Z,72.75
2022-08-04T05:24:02.145Z,73.01
2022-08-04T05:25:02.102Z,73.81
2022-08-04T05:26:02.109Z,72.81
2022-08-04T05:27:02.093Z,72.41
2022-08-04T05:28:02.069Z,72.52
2022-08-04T05:29:02.082Z,72.61
2022-08-04T05:30:02.047Z,72.31
2022-08-04T05:31:02.052Z,72.02
2022-08-04T05:32:02.022Z,71.58
2022-08-04T05:33:02.013Z,71.78
2022-08-04T05:34:02.011Z,71.98
2022-08-04T05:35:01.995Z,72.18
2022-08-04T05:36:18.703Z,71.98
2022-08-04T05:37:02.969Z,71.95
2022-08-04T05:38:01.998Z,71.05
2022-08-04T05:39:01.988Z,70.85
2022-08-04T05:40:01.933Z,71.45
2022-08-04T05:41:01.954Z,71.65
2022-08-04T05:42:04.632Z,70.92
2022-08-04T05:43:01.906Z,71.01
2022-08-04T05:44:01.888Z,70.22
2022-08-04T05:45:01.882Z,70.68
2022-08-04T05:46:01.884Z,70.62
2022-08-04T05:47:01.871Z,70.52
2022-08-04T05:48:01.849Z,70.42
2022-08-04T05:49:01.868Z,70.52
2022-08-04T05:50:03.086Z,70.29
2022-08-04T05:51:01.841Z,71.58
2022-08-04T05:52:01.806Z,69.59
2022-08-04T05:53:01.793Z,69.59
2022-08-04T05:54:01.789Z,69.76
2022-08-04T05:55:01.808Z,70.59
2022-08-04T05:56:01.822Z,71.38
2022-08-04T05:57:01.755Z,70.59
2022-08-04T05:58:01.760Z,71.28
2022-08-04T05:59:01.734Z,70.98
2022-08-04T06:00:10.555Z,70.59
2022-08-04T06:01:02.733Z,69.79
2022-08-04T06:02:01.748Z,70.68
2022-08-04T06:03:01.708Z,69.89
2022-08-04T06:04:01.674Z,69.96
2022-08-04T06:05:01.662Z,69.85
2022-08-04T06:06:01.666Z,69.03
2022-08-04T06:07:01.671Z,68.63
2022-08-04T06:08:12.084Z,69.03
2022-08-04T06:09:02.618Z,68.93
2022-08-04T06:10:01.631Z,69.23
2022-08-04T06:11:01.682Z,69.09
2022-08-04T06:12:03.598Z,69.49
2022-08-04T06:13:01.577Z,69.09
2022-08-04T06:14:01.565Z,68.83
2022-08-04T06:15:01.556Z,69.53
2022-08-04T06:16:01.588Z,69.49
2022-08-04T06:17:01.547Z,69.39
2022-08-04T06:18:35.333Z,68.70
2022-08-04T06:20:04.036Z,68.40
2022-08-04T06:20:18.862Z,68.07
2022-08-04T06:21:02.514Z,67.44
2022-08-04T06:22:01.490Z,66.61
2022-08-04T06:23:01.468Z,66.32
2022-08-04T06:24:04.457Z,66.82
2022-08-04T06:25:01.472Z,66.61
2022-08-04T06:26:01.432Z,67.11
2022-08-04T06:27:01.458Z,67.14
2022-08-04T06:28:01.428Z,67.44
2022-08-04T06:29:01.400Z,66.91
2022-08-04T06:30:01.389Z,66.42
2022-08-04T06:31:01.381Z,65.72
2022-08-04T06:32:28.845Z,65.72
2022-08-04T06:33:04.282Z,67.01
2022-08-04T06:34:01.343Z,66.52
2022-08-04T06:35:01.339Z,66.85
2022-08-04T06:36:01.323Z,67.11
2022-08-04T06:37:01.357Z,67.11
2022-08-04T06:38:02.029Z,66.91
2022-08-04T06:39:01.390Z,66.91
2022-08-04T06:40:01.328Z,66.19
2022-08-04T06:41:01.269Z,67.21
2022-08-04T06:42:17.537Z,66.68
2022-08-04T06:43:02.314Z,67.90
2022-08-04T06:44:01.266Z,66.82
2022-08-04T06:45:01.243Z,66.98
2022-08-04T06:46:01.216Z,66.49
2022-08-04T06:47:01.227Z,66.13
2022-08-04T06:48:01.244Z,65.13
2022-08-04T06:49:01.187Z,64.78
2022-08-04T06:51:26.238Z,65.04
2022-08-04T06:51:26.922Z,65.01
2022-08-04T06:52:02.152Z,63.03
2022-08-04T06:53:01.301Z,63.23
2022-08-04T06:54:01.128Z,63.33
2022-08-04T06:55:01.126Z,63.13
2022-08-04T06:56:01.125Z,63.36
2022-08-04T06:57:01.096Z,63.16
2022-08-04T06:58:03.289Z,63.75
2022-08-04T06:59:01.090Z,63.09
2022-08-04T07:00:01.072Z,64.15
2022-08-04T07:01:01.064Z,63.06
2022-08-04T07:02:01.099Z,64.45
2022-08-04T07:03:01.031Z,63.95
2022-08-04T07:04:01.032Z,63.85
2022-08-04T07:05:05.876Z,63.26
2022-08-04T07:06:05.730Z,63.16
2022-08-04T07:07:02.011Z,63.36
2022-08-04T07:08:00.981Z,63.43
2022-08-04T07:09:00.984Z,63.23
2022-08-04T07:10:00.963Z,63.03
2022-08-04T07:11:00.947Z,63.33
2022-08-04T07:12:00.929Z,62.54
2022-08-04T07:13:00.922Z,62.31
2022-08-04T07:14:00.955Z,62.84
2022-08-04T07:15:00.900Z,62.44
2022-08-04T07:16:00.924Z,62.74
2022-08-04T07:17:00.881Z,63.26
2022-08-04T07:18:00.863Z,63.26
2022-08-04T07:19:10.045Z,62.87
2022-08-04T07:20:01.849Z,63.03
2022-08-04T07:21:00.847Z,63.43
2022-08-04T07:22:15.934Z,61.45
2022-08-04T07:23:01.814Z,60.14
2022-08-04T07:24:00.801Z,61.03
2022-08-04T07:25:01.338Z,60.21
2022-08-04T07:26:11.847Z,60.77
2022-08-04T07:27:01.768Z,59.36
2022-08-04T07:28:00.759Z,58.08
2022-08-04T07:29:00.761Z,58.08
2022-08-04T07:30:00.770Z,58.57
2022-08-04T07:31:00.728Z,58.87
2022-08-04T07:32:00.711Z,58.80
2022-08-04T07:33:00.700Z,59.09
2022-08-04T07:34:20.737Z,58.83
2022-08-04T07:35:01.696Z,58.63
2022-08-04T07:36:05.091Z,58.73
2022-08-04T07:37:00.658Z,59.42
2022-08-04T07:38:00.647Z,59.94
2022-08-04T07:39:00.649Z,60.31
2022-08-04T07:40:00.719Z,60.33
2022-08-04T07:41:00.750Z,60.93
2022-08-04T07:42:01.397Z,60.83
2022-08-04T07:43:00.591Z,60.24
2022-08-04T07:44:00.582Z,60.73
2022-08-04T07:45:00.568Z,60.27
2022-08-04T07:46:00.578Z,60.46
2022-08-04T07:47:00.545Z,62.51
2022-08-04T07:48:05.234Z,62.48
2022-08-04T07:49:01.532Z,60.90
2022-08-04T07:50:00.518Z,61.07
2022-08-04T07:51:00.529Z,61.16
2022-08-04T07:52:00.493Z,61.04
2022-08-04T07:53:52.672Z,59.85
2022-08-04T07:54:01.472Z,59.72
2022-08-04T07:55:00.457Z,59.20
2022-08-04T07:56:00.478Z,57.23
2022-08-04T07:57:00.434Z,57.92
2022-08-04T07:58:00.427Z,59.17
2022-08-04T07:59:00.415Z,57.40
2022-08-04T08:00:00.422Z,57.60
2022-08-04T08:01:00.393Z,56.22
2022-08-04T08:02:00.441Z,56.32
2022-08-04T08:03:00.474Z,56.00
2022-08-04T08:04:00.539Z,55.31
2022-08-04T08:05:00.352Z,54.52
2022-08-04T08:06:30.810Z,54.79
2022-08-04T08:07:01.378Z,55.77
2022-08-04T08:08:00.318Z,55.87
2022-08-04T08:09:00.305Z,54.49
2022-08-04T08:10:00.299Z,54.39
2022-08-04T08:11:00.283Z,54.00
2022-08-04T08:12:36.712Z,54.17
2022-08-04T08:13:01.264Z,53.78
2022-08-04T08:14:00.255Z,54.17
2022-08-04T08:15:00.239Z,53.88
2022-08-04T08:16:00.241Z,54.37
2022-08-04T08:17:00.303Z,54.14
2022-08-04T08:18:00.897Z,52.87
2022-08-04T08:19:00.208Z,53.85
2022-08-04T08:20:00.187Z,53.92
2022-08-04T08:21:00.174Z,52.38
2022-08-04T08:22:01.165Z,52.58
2022-08-04T08:23:00.158Z,52.58
2022-08-04T08:24:00.164Z,54.22
2022-08-04T08:25:00.132Z,54.32
2022-08-04T08:26:00.120Z,53.16
2022-08-04T08:27:00.580Z,54.25
2022-08-04T08:28:00.135Z,54.32
2022-08-04T08:29:00.091Z,54.52
2022-08-04T08:30:00.079Z,52.06
2022-08-04T08:31:00.142Z,53.44
2022-08-04T08:32:05.534Z,52.94
2022-08-04T08:33:01.061Z,53.23
2022-08-04T08:34:00.035Z,55.57
2022-08-04T08:35:00.048Z,54.00
2022-08-04T08:36:00.013Z,54.88
2022-08-04T08:37:00.001Z,52.52
2022-08-04T08:38:00.006Z,52.42
2022-08-04T08:39:00.024Z,51.93
2022-08-04T08:39:59.972Z,54.00
2022-08-04T08:40:59.990Z,53.87
2022-08-04T08:41:59.949Z,52.30
2022-08-04T08:42:59.951Z,51.34
2022-08-04T08:44:06.738Z,54.07
2022-08-04T08:45:00.918Z,55.44
2022-08-04T08:45:59.928Z,54.66
2022-08-04T08:46:59.894Z,54.27
2022-08-04T08:48:06.072Z,52.20
2022-08-04T08:49:00.888Z,52.18
2022-08-04T08:50:03.989Z,51.79
2022-08-04T08:50:59.850Z,52.18
2022-08-04T08:51:59.865Z,52.47
2022-08-04T08:53:02.254Z,52.47
2022-08-04T08:53:59.857Z,51.89
2022-08-04T08:54:59.809Z,51.49
2022-08-04T08:55:59.798Z,53.94
2022-08-04T08:56:59.786Z,52.18
2022-08-04T08:58:00.843Z,52.47
2022-08-04T08:58:59.783Z,51.49
2022-08-04T08:59:59.773Z,52.96
2022-08-04T09:00:59.743Z,53.53
2022-08-04T09:01:59.801Z,53.53
2022-08-04T09:03:04.822Z,54.31
2022-08-04T09:04:00.739Z,52.25
2022-08-04T09:04:59.698Z,51.27
2022-08-04T09:05:59.705Z,52.45
2022-08-04T09:06:59.697Z,51.93
2022-08-04T09:07:59.670Z,53.80
2022-08-04T09:08:59.662Z,49.58
2022-08-04T09:09:59.672Z,49.29
2022-08-04T09:10:59.636Z,50.34
2022-08-04T09:11:59.627Z,52.00
2022-08-04T09:12:59.624Z,51.90
2022-08-04T09:13:59.626Z,51.20
2022-08-04T09:14:59.595Z,51.49
2022-08-04T09:15:59.599Z,50.51
2022-08-04T09:16:59.572Z,50.71
2022-08-04T09:17:59.564Z,52.08
2022-08-04T09:18:59.559Z,50.12
2022-08-04T09:19:59.542Z,51.49
2022-08-04T09:20:59.566Z,51.29
2022-08-04T09:21:59.523Z,50.81
2022-08-04T09:22:59.507Z,50.02
2022-08-04T09:23:59.498Z,51.76
2022-08-04T09:24:59.485Z,51.66
2022-08-04T09:25:59.524Z,51.10
2022-08-04T09:26:59.824Z,52.15
2022-08-04T09:28:02.977Z,50.98
2022-08-04T09:29:00.445Z,50.78
2022-08-04T09:29:59.435Z,50.10
2022-08-04T09:30:59.453Z,51.17
2022-08-04T09:32:07.842Z,52.05
2022-08-04T09:32:59.406Z,51.15
2022-08-04T09:33:59.397Z,52.32
2022-08-04T09:35:07.534Z,49.99
2022-08-04T09:36:00.432Z,52.05
2022-08-04T09:36:59.381Z,51.66
2022-08-04T09:37:59.366Z,54.08
2022-08-04T09:38:59.358Z,51.15
2022-08-04T09:39:59.336Z,49.87
2022-08-04T09:40:59.326Z,50.17
2022-08-04T09:41:59.513Z,51.83
2022-08-04T09:42:59.313Z,52.22
2022-08-04T09:44:50.547Z,53.96
2022-08-04T09:45:05.633Z,52.03
2022-08-04T09:46:00.268Z,49.87
2022-08-04T09:46:59.639Z,49.38
2022-08-04T09:47:59.258Z,50.37
2022-08-04T09:48:59.229Z,51.64
2022-08-04T09:49:59.225Z,50.93
2022-08-04T09:50:59.214Z,51.12
2022-08-04T09:51:59.844Z,49.36
2022-08-04T09:52:59.201Z,51.00
2022-08-04T09:53:59.180Z,51.22
2022-08-04T09:54:59.167Z,52.00
2022-08-04T09:56:03.005Z,52.17
2022-08-04T09:56:59.169Z,50.15
2022-08-04T09:57:59.149Z,51.81
2022-08-04T09:58:59.124Z,54.83
2022-08-04T09:59:59.117Z,53.74
2022-08-04T10:00:59.111Z,52.10
2022-08-04T10:02:00.298Z,51.10
2022-08-04T10:02:59.151Z,50.12
2022-08-04T10:03:59.085Z,49.53
2022-08-04T10:04:59.062Z,50.71
2022-08-04T10:05:59.094Z,49.82
2022-08-04T10:06:59.055Z,51.00
2022-08-04T10:07:59.661Z,49.24
2022-08-04T10:09:00.032Z,50.32
2022-08-04T10:09:59.056Z,50.10
2022-08-04T10:10:58.997Z,49.04
2022-08-04T10:11:59.060Z,50.02
2022-08-04T10:12:59.009Z,50.10
2022-08-04T10:13:58.980Z,53.03
2022-08-04T10:14:58.955Z,49.41
2022-08-04T10:15:58.955Z,49.61
2022-08-04T10:16:58.941Z,49.12
2022-08-04T10:17:58.950Z,49.51
2022-08-04T10:18:58.914Z,49.22
2022-08-04T10:19:59.916Z,49.29
2022-08-04T10:21:34.819Z,48.44
2022-08-04T10:22:30.000Z,49.88
2022-08-04T10:23:11.021Z,48.80
2022-08-04T10:24:00.431Z,50.26
2022-08-04T10:24:58.852Z,49.61
2022-08-04T10:26:06.836Z,48.63
2022-08-04T10:26:59.883Z,49.90
2022-08-04T10:27:58.818Z,50.42
2022-08-04T10:28:59.002Z,49.75
2022-08-04T10:29:58.835Z,49.85
2022-08-04T10:30:58.789Z,51.44
2022-08-04T10:31:58.778Z,51.15
2022-08-04T10:32:58.770Z,51.17
2022-08-04T10:33:58.852Z,50.88
2022-08-04T10:34:58.747Z,51.86
2022-08-04T10:35:58.738Z,51.98
2022-08-04T10:36:58.764Z,51.68
2022-08-04T10:38:01.321Z,51.29
2022-08-04T10:38:58.825Z,49.82
2022-08-04T10:39:58.751Z,51.29
2022-08-04T10:40:58.682Z,52.08
2022-08-04T10:41:59.888Z,50.34
2022-08-04T10:42:58.661Z,51.90
2022-08-04T10:43:58.647Z,55.04
2022-08-04T10:44:58.664Z,51.90
2022-08-04T10:45:58.731Z,51.81
2022-08-04T10:46:58.617Z,53.38
2022-08-04T10:47:58.612Z,53.18
2022-08-04T10:48:58.597Z,51.59
2022-08-04T10:49:58.604Z,53.67
2022-08-04T10:50:58.577Z,54.43
2022-08-04T10:51:59.684Z,51.68
2022-08-04T10:52:58.568Z,51.49
2022-08-04T10:53:58.540Z,51.98
2022-08-04T10:54:58.541Z,51.20
2022-08-04T10:56:07.353Z,51.98
2022-08-04T10:56:59.518Z,52.67
2022-08-04T10:57:58.500Z,52.37
2022-08-04T10:58:58.492Z,52.56
2022-08-04T11:00:03.597Z,54.11
2022-08-04T11:00:59.491Z,50.85
2022-08-04T11:02:02.322Z,49.55
2022-08-04T11:02:59.529Z,49.33
2022-08-04T11:03:58.437Z,50.90
2022-08-04T11:04:58.450Z,49.32
2022-08-04T11:05:58.411Z,49.32
2022-08-04T11:06:58.405Z,49.32
2022-08-04T11:07:58.396Z,48.54
2022-08-04T11:08:58.388Z,49.51
2022-08-04T11:09:58.396Z,49.39
2022-08-04T11:10:58.380Z,49.19
2022-08-04T11:12:01.448Z,49.78
2022-08-04T11:12:58.351Z,49.58
2022-08-04T11:13:58.335Z,51.51
2022-08-04T11:14:58.323Z,48.58
2022-08-04T11:15:58.309Z,49.76
2022-08-04T11:16:58.326Z,46.53
2022-08-04T11:17:58.287Z,48.19
2022-08-04T11:18:58.278Z,49.76
2022-08-04T11:20:18.167Z,48.75
2022-08-04T11:20:59.278Z,48.85
2022-08-04T11:21:58.259Z,49.63
2022-08-04T11:22:58.238Z,48.85
2022-08-04T11:23:58.225Z,48.66
2022-08-04T11:24:58.224Z,47.78
2022-08-04T11:25:58.231Z,46.88
2022-08-04T11:26:58.193Z,46.59
2022-08-04T11:27:58.184Z,46.69
2022-08-04T11:29:03.671Z,47.27
2022-08-04T11:29:59.189Z,47.05
2022-08-04T11:30:58.157Z,44.64
2022-08-04T11:31:58.151Z,43.76
2022-08-04T11:32:58.131Z,47.75
2022-08-04T11:33:58.118Z,49.32
2022-08-04T11:34:58.117Z,48.54
2022-08-04T11:35:58.096Z,46.97
2022-08-04T11:36:58.108Z,47.00
2022-08-04T11:37:58.087Z,49.05
2022-08-04T11:38:58.119Z,47.78
2022-08-04T11:39:58.054Z,46.83
2022-08-04T11:41:02.701Z,47.12
2022-08-04T11:41:59.047Z,47.90
2022-08-04T11:42:58.027Z,47.22
2022-08-04T11:44:03.917Z,48.49
2022-08-04T11:44:59.006Z,46.34
2022-08-04T11:45:57.991Z,46.56
2022-08-04T11:46:58.006Z,46.48
2022-08-04T11:47:57.972Z,46.48
2022-08-04T11:48:57.961Z,47.87
2022-08-04T11:49:58.522Z,48.26
2022-08-04T11:50:57.937Z,48.55
2022-08-04T11:51:57.960Z,48.46
2022-08-04T11:52:57.918Z,48.48
2022-08-04T11:53:57.912Z,49.16
2022-08-04T11:54:57.899Z,50.15
2022-08-04T11:56:07.440Z,49.36
2022-08-04T11:56:58.890Z,50.24
2022-08-04T11:57:57.885Z,48.60
2022-08-04T11:58:57.855Z,48.50
2022-08-04T11:59:59.477Z,49.97
2022-08-04T12:00:58.828Z,49.87
2022-08-04T12:01:57.935Z,50.85
2022-08-04T12:02:57.841Z,49.29
2022-08-04T12:04:00.431Z,49.70
2022-08-04T12:04:58.787Z,49.31
2022-08-04T12:05:57.782Z,49.90
2022-08-04T12:07:28.525Z,50.22
2022-08-04T12:07:58.799Z,49.53
2022-08-04T12:08:57.748Z,49.65
2022-08-04T12:09:57.741Z,50.63
2022-08-04T12:10:57.725Z,50.34
2022-08-04T12:11:57.716Z,49.46
2022-08-04T12:12:57.737Z,50.34
2022-08-04T12:14:00.748Z,50.07
2022-08-04T12:14:57.684Z,50.17
2022-08-04T12:15:57.679Z,50.66
2022-08-04T12:16:57.662Z,49.80
2022-08-04T12:17:57.689Z,51.20
2022-08-04T12:18:57.656Z,51.59
2022-08-04T12:20:05.181Z,51.22
2022-08-04T12:20:58.620Z,51.42
2022-08-04T12:21:57.629Z,52.01
2022-08-04T12:22:58.011Z,52.01
2022-08-04T12:24:00.712Z,51.62
2022-08-04T12:24:57.579Z,52.03
2022-08-04T12:25:57.572Z,52.06
2022-08-04T12:26:57.558Z,52.06
2022-08-04T12:27:57.558Z,54.35
2022-08-04T12:29:13.040Z,54.74
2022-08-04T12:30:58.688Z,55.75
2022-08-04T12:31:04.074Z,57.32
2022-08-04T12:31:58.512Z,57.12
2022-08-04T12:32:57.493Z,58.43
2022-08-04T12:34:05.191Z,59.91
2022-08-04T12:34:58.472Z,60.52
2022-08-04T12:36:05.281Z,62.23
2022-08-04T12:36:58.452Z,63.31
2022-08-04T12:37:57.440Z,64.42
2022-08-04T12:38:57.484Z,66.23
2022-08-04T12:40:28.112Z,67.22
2022-08-04T12:40:58.405Z,66.82
2022-08-04T12:41:57.408Z,67.22
2022-08-04T12:42:59.783Z,67.84
2022-08-04T12:43:57.412Z,68.24
2022-08-04T12:44:57.361Z,68.83
2022-08-04T12:45:57.357Z,68.43
2022-08-04T12:47:25.739Z,68.46
2022-08-04T12:47:58.336Z,69.06
2022-08-04T12:48:57.351Z,69.29
2022-08-04T12:50:00.811Z,69.38
2022-08-04T12:50:57.299Z,69.88
2022-08-04T12:52:08.557Z,69.09